sensor_id;sensor_type;location;lat;lon;timestamp;pressure;altitude;pressure_sealevel;temperature;humidity
23643;BME280;11998;55.788;37.572;2023-07-16T00:00:58;98278.44;;;86.56;11.88
23643;BME280;11998;55.788;37.572;2023-07-16T00:01:59;98286.41;;;87.94;11.84
23643;BME280;11998;55.788;37.572;2023-07-16T00:02:59;98298.34;;;88.25;11.61
23643;BME280;11998;55.788;37.572;2023-07-16T00:04:00;98301.06;;;88.46;11.86
23643;BME280;11998;55.788;37.572;2023-07-16T00:05:00;98298.72;;;87.68;12.03
23643;BME280;11998;55.788;37.572;2023-07-16T00:06:01;98302.22;;;88.65;11.67
23643;BME280;11998;55.788;37.572;2023-07-16T00:07:02;98307.25;;;88.32;11.72
23643;BME280;11998;55.788;37.572;2023-07-16T00:08:02;98303.69;;;88.03;11.85
23643;BME280;11998;55.788;37.572;2023-07-16T00:09:03;98306.66;;;88.19;11.69
23643;BME280;11998;55.788;37.572;2023-07-16T00:10:04;98310.25;;;88.32;11.63
23643;BME280;11998;55.788;37.572;2023-07-16T00:11:05;98311.09;;;87.87;11.93
23643;BME280;11998;55.788;37.572;2023-07-16T00:12:06;98315.41;;;87.71;11.94
23643;BME280;11998;55.788;37.572;2023-07-16T00:13:06;98308.47;;;87.76;12.15
23643;BME280;11998;55.788;37.572;2023-07-16T00:14:07;98309.47;;;88.95;11.66
23643;BME280;11998;55.788;37.572;2023-07-16T00:15:08;98314.16;;;88.65;11.80
23643;BME280;11998;55.788;37.572;2023-07-16T00:16:08;98313.84;;;87.93;11.98
23643;BME280;11998;55.788;37.572;2023-07-16T00:17:09;98301.53;;;88.04;11.66
23643;BME280;11998;55.788;37.572;2023-07-16T00:18:09;98308.09;;;87.87;11.64
23643;BME280;11998;55.788;37.572;2023-07-16T00:19:11;98312.06;;;88.91;11.53
23643;BME280;11998;55.788;37.572;2023-07-16T00:20:12;98314.94;;;88.74;11.63
23643;BME280;11998;55.788;37.572;2023-07-16T00:21:12;98314.63;;;89.42;11.50
23643;BME280;11998;55.788;37.572;2023-07-16T00:22:13;98316.72;;;89.25;11.68
23643;BME280;11998;55.788;37.572;2023-07-16T00:23:13;98324.94;;;89.99;11.79
23643;BME280;11998;55.788;37.572;2023-07-16T00:24:14;98324.41;;;88.95;11.78
23643;BME280;11998;55.788;37.572;2023-07-16T00:25:14;98335.31;;;89.98;11.72
23643;BME280;11998;55.788;37.572;2023-07-16T00:26:15;98329.25;;;89.56;11.70
23643;BME280;11998;55.788;37.572;2023-07-16T00:27:16;98320.44;;;88.92;11.76
23643;BME280;11998;55.788;37.572;2023-07-16T00:28:16;98323.59;;;89.67;11.53
23643;BME280;11998;55.788;37.572;2023-07-16T00:29:17;98329.38;;;89.33;11.57
23643;BME280;11998;55.788;37.572;2023-07-16T00:30:17;98324.84;;;89.64;11.52
23643;BME280;11998;55.788;37.572;2023-07-16T00:31:18;98318.34;;;89.75;11.84
23643;BME280;11998;55.788;37.572;2023-07-16T00:32:18;98335.94;;;90.56;11.50
23643;BME280;11998;55.788;37.572;2023-07-16T00:33:19;98348.31;;;91.76;11.51
23643;BME280;11998;55.788;37.572;2023-07-16T00:34:19;98350.41;;;92.48;11.57
23643;BME280;11998;55.788;37.572;2023-07-16T00:35:20;98355.94;;;92.62;11.62
23643;BME280;11998;55.788;37.572;2023-07-16T00:36:20;98347.84;;;91.79;11.73
23643;BME280;11998;55.788;37.572;2023-07-16T00:37:21;98356.63;;;91.94;11.45
23643;BME280;11998;55.788;37.572;2023-07-16T00:38:21;98347.84;;;91.79;11.65
23643;BME280;11998;55.788;37.572;2023-07-16T00:39:22;98353.72;;;92.91;11.32
23643;BME280;11998;55.788;37.572;2023-07-16T00:40:22;98353.41;;;92.68;11.59
23643;BME280;11998;55.788;37.572;2023-07-16T00:41:23;98355.50;;;92.94;11.64
23643;BME280;11998;55.788;37.572;2023-07-16T00:42:23;98352.97;;;92.71;11.38
23643;BME280;11998;55.788;37.572;2023-07-16T00:43:24;98356.66;;;92.14;11.95
23643;BME280;11998;55.788;37.572;2023-07-16T00:44:25;98353.38;;;92.29;11.57
23643;BME280;11998;55.788;37.572;2023-07-16T00:45:25;98322.13;;;88.55;11.96
23643;BME280;11998;55.788;37.572;2023-07-16T00:46:26;98322.75;;;89.74;11.76
23643;BME280;11998;55.788;37.572;2023-07-16T00:47:27;98330.09;;;91.10;11.53
23643;BME280;11998;55.788;37.572;2023-07-16T00:48:28;98332.28;;;91.54;11.29
23643;BME280;11998;55.788;37.572;2023-07-16T00:49:29;98335.94;;;91.08;11.61
23643;BME280;11998;55.788;37.572;2023-07-16T00:50:29;98326.97;;;90.73;11.79
23643;BME280;11998;55.788;37.572;2023-07-16T00:51:34;98327.28;;;90.08;11.81
23643;BME280;11998;55.788;37.572;2023-07-16T00:52:35;98329.59;;;91.04;11.56
23643;BME280;11998;55.788;37.572;2023-07-16T00:53:35;98336.84;;;91.55;11.71
23643;BME280;11998;55.788;37.572;2023-07-16T00:54:36;98330.22;;;91.02;11.77
23643;BME280;11998;55.788;37.572;2023-07-16T00:55:38;98330.34;;;91.49;11.82
23643;BME280;11998;55.788;37.572;2023-07-16T00:56:39;98327.63;;;90.12;11.53
23643;BME280;11998;55.788;37.572;2023-07-16T00:57:40;98323.44;;;90.32;11.58
23643;BME280;11998;55.788;37.572;2023-07-16T00:58:40;98327.50;;;89.53;11.60
23643;BME280;11998;55.788;37.572;2023-07-16T00:59:40;98319.91;;;89.19;11.70
23643;BME280;11998;55.788;37.572;2023-07-16T01:00:41;98317.88;;;90.29;11.75
23643;BME280;11998;55.788;37.572;2023-07-16T01:01:42;98313.13;;;88.86;11.63
23643;BME280;11998;55.788;37.572;2023-07-16T01:02:42;98329.78;;;90.37;11.67
23643;BME280;11998;55.788;37.572;2023-07-16T01:03:43;98322.56;;;90.40;11.67
23643;BME280;11998;55.788;37.572;2023-07-16T01:04:44;98323.34;;;89.98;11.64
23643;BME280;11998;55.788;37.572;2023-07-16T01:06:58;98347.72;;;91.06;11.62
23643;BME280;11998;55.788;37.572;2023-07-16T01:08:04;98341.38;;;91.19;11.68
23643;BME280;11998;55.788;37.572;2023-07-16T01:09:09;98344.38;;;91.19;11.52
23643;BME280;11998;55.788;37.572;2023-07-16T01:10:11;98345.03;;;91.81;11.60
23643;BME280;11998;55.788;37.572;2023-07-16T01:11:12;98331.91;;;90.78;11.69
23643;BME280;11998;55.788;37.572;2023-07-16T01:12:13;98345.81;;;91.82;11.43
23643;BME280;11998;55.788;37.572;2023-07-16T01:13:14;98343.66;;;91.65;11.54
23643;BME280;11998;55.788;37.572;2023-07-16T01:14:17;98337.91;;;90.96;11.62
23643;BME280;11998;55.788;37.572;2023-07-16T01:15:17;98337.13;;;90.18;11.73
23643;BME280;11998;55.788;37.572;2023-07-16T01:16:23;98334.25;;;90.28;11.62
23643;BME280;11998;55.788;37.572;2023-07-16T01:17:23;98329.22;;;90.13;11.54
23643;BME280;11998;55.788;37.572;2023-07-16T01:18:24;98329.06;;;90.28;11.61
23643;BME280;11998;55.788;37.572;2023-07-16T01:19:25;98334.00;;;90.51;11.70
23643;BME280;11998;55.788;37.572;2023-07-16T01:20:26;98331.66;;;90.07;11.67
23643;BME280;11998;55.788;37.572;2023-07-16T01:21:32;98333.47;;;90.27;11.64
23643;BME280;11998;55.788;37.572;2023-07-16T01:24:02;98333.69;;;90.04;11.87
23643;BME280;11998;55.788;37.572;2023-07-16T01:29:53;98344.72;;;90.19;11.62
23643;BME280;11998;55.788;37.572;2023-07-16T01:30:55;98343.09;;;90.01;11.86
23643;BME280;11998;55.788;37.572;2023-07-16T01:31:59;98338.03;;;89.61;11.83
23643;BME280;11998;55.788;37.572;2023-07-16T01:33:03;98334.31;;;89.05;11.78
23643;BME280;11998;55.788;37.572;2023-07-16T01:34:04;98341.28;;;89.48;11.71
23643;BME280;11998;55.788;37.572;2023-07-16T01:35:07;98337.63;;;89.25;11.73
23643;BME280;11998;55.788;37.572;2023-07-16T01:36:08;98348.75;;;89.64;11.75
23643;BME280;11998;55.788;37.572;2023-07-16T01:37:09;98338.50;;;88.39;11.76
23643;BME280;11998;55.788;37.572;2023-07-16T01:38:11;98340.16;;;89.36;11.82
23643;BME280;11998;55.788;37.572;2023-07-16T01:39:12;98348.28;;;90.43;11.50
23643;BME280;11998;55.788;37.572;2023-07-16T01:40:13;98356.47;;;90.00;11.87
23643;BME280;11998;55.788;37.572;2023-07-16T01:41:14;98353.38;;;90.67;11.64
23643;BME280;11998;55.788;37.572;2023-07-16T01:42:14;98355.09;;;89.68;11.69
23643;BME280;11998;55.788;37.572;2023-07-16T01:43:15;98353.25;;;89.00;11.80
23643;BME280;11998;55.788;37.572;2023-07-16T01:44:16;98353.97;;;89.56;11.67
23643;BME280;11998;55.788;37.572;2023-07-16T01:45:16;98354.41;;;90.27;11.62
23643;BME280;11998;55.788;37.572;2023-07-16T01:46:17;98364.19;;;90.28;11.85
23643;BME280;11998;55.788;37.572;2023-07-16T01:47:23;98354.13;;;89.33;11.83
23643;BME280;11998;55.788;37.572;2023-07-16T01:48:33;98352.09;;;89.93;11.70
23643;BME280;11998;55.788;37.572;2023-07-16T01:49:34;98360.84;;;89.41;11.77
23643;BME280;11998;55.788;37.572;2023-07-16T01:50:34;98359.75;;;89.87;11.74
23643;BME280;11998;55.788;37.572;2023-07-16T01:51:35;98349.91;;;88.96;11.58
23643;BME280;11998;55.788;37.572;2023-07-16T01:52:35;98345.47;;;88.19;11.75
23643;BME280;11998;55.788;37.572;2023-07-16T01:53:36;98343.28;;;87.89;11.95
23643;BME280;11998;55.788;37.572;2023-07-16T01:54:36;98347.94;;;88.91;11.83
23643;BME280;11998;55.788;37.572;2023-07-16T01:55:37;98343.44;;;89.15;11.91
23643;BME280;11998;55.788;37.572;2023-07-16T01:56:37;98343.31;;;88.12;11.68
23643;BME280;11998;55.788;37.572;2023-07-16T01:57:38;98343.28;;;88.19;11.89
23643;BME280;11998;55.788;37.572;2023-07-16T01:58:38;98347.97;;;89.56;11.65
23643;BME280;11998;55.788;37.572;2023-07-16T01:59:39;98351.31;;;89.35;11.63
23643;BME280;11998;55.788;37.572;2023-07-16T02:00:39;98361.53;;;89.90;11.82
23643;BME280;11998;55.788;37.572;2023-07-16T02:01:40;98353.81;;;89.21;11.95
23643;BME280;11998;55.788;37.572;2023-07-16T02:02:40;98358.47;;;89.97;11.68
23643;BME280;11998;55.788;37.572;2023-07-16T02:03:41;98356.72;;;90.37;11.80
23643;BME280;11998;55.788;37.572;2023-07-16T02:04:41;98373.69;;;91.38;11.42
23643;BME280;11998;55.788;37.572;2023-07-16T02:05:42;98370.72;;;91.48;11.63
23643;BME280;11998;55.788;37.572;2023-07-16T02:06:42;98372.25;;;90.95;11.44
23643;BME280;11998;55.788;37.572;2023-07-16T02:07:43;98364.38;;;88.29;11.92
23643;BME280;11998;55.788;37.572;2023-07-16T02:08:43;98362.75;;;89.54;11.83
23643;BME280;11998;55.788;37.572;2023-07-16T02:09:44;98372.19;;;89.75;11.64
23643;BME280;11998;55.788;37.572;2023-07-16T02:10:47;98376.91;;;90.71;11.76
23643;BME280;11998;55.788;37.572;2023-07-16T02:11:48;98371.19;;;90.65;11.49
23643;BME280;11998;55.788;37.572;2023-07-16T02:12:48;98368.84;;;89.96;11.72
23643;BME280;11998;55.788;37.572;2023-07-16T02:13:49;98364.69;;;89.67;11.64
23643;BME280;11998;55.788;37.572;2023-07-16T02:14:49;98368.13;;;90.30;11.83
23643;BME280;11998;55.788;37.572;2023-07-16T02:15:50;98364.03;;;89.43;11.85
23643;BME280;11998;55.788;37.572;2023-07-16T02:16:50;98352.59;;;89.25;11.86
23643;BME280;11998;55.788;37.572;2023-07-16T02:17:51;98359.09;;;89.31;11.91
23643;BME280;11998;55.788;37.572;2023-07-16T02:18:51;98360.38;;;88.49;11.63
23643;BME280;11998;55.788;37.572;2023-07-16T02:19:52;98351.63;;;88.21;12.01
23643;BME280;11998;55.788;37.572;2023-07-16T02:20:52;98357.97;;;88.63;11.96
23643;BME280;11998;55.788;37.572;2023-07-16T02:21:53;98356.94;;;88.76;11.84
23643;BME280;11998;55.788;37.572;2023-07-16T02:22:54;98357.84;;;89.01;11.80
23643;BME280;11998;55.788;37.572;2023-07-16T02:23:55;98359.75;;;88.58;11.64
23643;BME280;11998;55.788;37.572;2023-07-16T02:24:55;98359.81;;;89.06;11.74
23643;BME280;11998;55.788;37.572;2023-07-16T02:25:56;98363.31;;;89.28;11.63
23643;BME280;11998;55.788;37.572;2023-07-16T02:26:56;98366.41;;;89.45;11.87
23643;BME280;11998;55.788;37.572;2023-07-16T02:27:57;98369.91;;;89.59;11.54
23643;BME280;11998;55.788;37.572;2023-07-16T02:28:57;98369.13;;;88.32;12.07
23643;BME280;11998;55.788;37.572;2023-07-16T02:29:59;98363.53;;;88.66;11.88
23643;BME280;11998;55.788;37.572;2023-07-16T02:31:00;98366.44;;;88.97;11.56
23643;BME280;11998;55.788;37.572;2023-07-16T02:32:01;98368.03;;;89.38;11.76
23643;BME280;11998;55.788;37.572;2023-07-16T02:33:01;98374.28;;;90.57;11.56
23643;BME280;11998;55.788;37.572;2023-07-16T02:34:02;98379.91;;;89.54;11.70
23643;BME280;11998;55.788;37.572;2023-07-16T02:35:02;98373.78;;;89.76;11.67
23643;BME280;11998;55.788;37.572;2023-07-16T02:36:03;98368.28;;;88.85;11.77
23643;BME280;11998;55.788;37.572;2023-07-16T02:37:04;98361.94;;;88.43;11.75
23643;BME280;11998;55.788;37.572;2023-07-16T02:38:04;98361.19;;;88.50;11.76
23643;BME280;11998;55.788;37.572;2023-07-16T02:39:05;98361.94;;;88.65;11.71
23643;BME280;11998;55.788;37.572;2023-07-16T02:40:06;98359.91;;;88.76;11.86
23643;BME280;11998;55.788;37.572;2023-07-16T02:41:07;98362.72;;;88.74;11.58
23643;BME280;11998;55.788;37.572;2023-07-16T02:42:08;98361.19;;;88.04;11.93
23643;BME280;11998;55.788;37.572;2023-07-16T02:43:08;98358.88;;;88.96;11.56
23643;BME280;11998;55.788;37.572;2023-07-16T02:44:09;98369.72;;;89.16;11.78
23643;BME280;11998;55.788;37.572;2023-07-16T02:45:10;98365.25;;;89.33;11.75
23643;BME280;11998;55.788;37.572;2023-07-16T02:46:10;98367.28;;;89.30;11.88
23643;BME280;11998;55.788;37.572;2023-07-16T02:47:11;98381.66;;;90.14;11.37
23643;BME280;11998;55.788;37.572;2023-07-16T02:48:11;98377.88;;;90.39;11.43
23643;BME280;11998;55.788;37.572;2023-07-16T02:49:12;98393.09;;;90.08;11.77
23643;BME280;11998;55.788;37.572;2023-07-16T02:50:13;98381.59;;;90.81;11.45
23643;BME280;11998;55.788;37.572;2023-07-16T02:51:13;98386.78;;;90.64;11.64
23643;BME280;11998;55.788;37.572;2023-07-16T02:52:14;98377.16;;;89.48;11.88
23643;BME280;11998;55.788;37.572;2023-07-16T02:53:14;98377.03;;;88.83;11.89
23643;BME280;11998;55.788;37.572;2023-07-16T02:54:15;98377.84;;;88.83;11.57
23643;BME280;11998;55.788;37.572;2023-07-16T02:55:15;98373.50;;;88.00;11.86
23643;BME280;11998;55.788;37.572;2023-07-16T02:56:16;98375.66;;;88.84;11.86
23643;BME280;11998;55.788;37.572;2023-07-16T02:57:16;98378.28;;;89.60;11.86
23643;BME280;11998;55.788;37.572;2023-07-16T02:58:17;98384.22;;;89.93;11.49
23643;BME280;11998;55.788;37.572;2023-07-16T02:59:17;98378.66;;;89.64;11.56
23643;BME280;11998;55.788;37.572;2023-07-16T03:00:18;98393.94;;;90.01;11.53
23643;BME280;11998;55.788;37.572;2023-07-16T03:01:18;98393.63;;;90.14;11.80
23643;BME280;11998;55.788;37.572;2023-07-16T03:02:19;98397.50;;;90.49;11.75
23643;BME280;11998;55.788;37.572;2023-07-16T03:03:19;98382.94;;;90.28;11.81
23643;BME280;11998;55.788;37.572;2023-07-16T03:04:20;98382.56;;;88.94;11.99
23643;BME280;11998;55.788;37.572;2023-07-16T03:05:21;98388.69;;;90.51;11.55
23643;BME280;11998;55.788;37.572;2023-07-16T03:06:21;98406.34;;;91.43;11.58
23643;BME280;11998;55.788;37.572;2023-07-16T03:07:21;98406.34;;;91.43;11.58
23643;BME280;11998;55.788;37.572;2023-07-16T03:08:22;98410.75;;;91.42;11.57
23643;BME280;11998;55.788;37.572;2023-07-16T03:09:26;98410.69;;;92.23;11.42
23643;BME280;11998;55.788;37.572;2023-07-16T03:10:27;98413.63;;;91.94;11.53
23643;BME280;11998;55.788;37.572;2023-07-16T03:11:27;98406.91;;;91.86;11.50
23643;BME280;11998;55.788;37.572;2023-07-16T03:12:27;98418.25;;;91.78;11.84
23643;BME280;11998;55.788;37.572;2023-07-16T03:13:28;98425.75;;;92.33;11.63
23643;BME280;11998;55.788;37.572;2023-07-16T03:14:29;98412.72;;;91.48;11.60
23643;BME280;11998;55.788;37.572;2023-07-16T03:15:29;98418.00;;;91.93;11.57
23643;BME280;11998;55.788;37.572;2023-07-16T03:16:30;98420.06;;;92.37;11.35
23643;BME280;11998;55.788;37.572;2023-07-16T03:17:30;98421.84;;;92.04;11.57
23643;BME280;11998;55.788;37.572;2023-07-16T03:18:31;98423.09;;;92.00;11.52
23643;BME280;11998;55.788;37.572;2023-07-16T03:19:32;98425.41;;;92.29;11.68
23643;BME280;11998;55.788;37.572;2023-07-16T03:20:32;98422.13;;;92.35;11.63
23643;BME280;11998;55.788;37.572;2023-07-16T03:21:33;98417.50;;;92.24;11.74
23643;BME280;11998;55.788;37.572;2023-07-16T03:22:33;98426.94;;;92.96;11.68
23643;BME280;11998;55.788;37.572;2023-07-16T03:23:34;98424.22;;;93.29;11.14
23643;BME280;11998;55.788;37.572;2023-07-16T03:24:34;98429.31;;;92.97;11.41
23643;BME280;11998;55.788;37.572;2023-07-16T03:25:35;98422.06;;;92.25;11.74
23643;BME280;11998;55.788;37.572;2023-07-16T03:26:35;98412.78;;;92.31;11.48
23643;BME280;11998;55.788;37.572;2023-07-16T03:27:36;98406.25;;;91.78;11.67
23643;BME280;11998;55.788;37.572;2023-07-16T03:28:36;98410.44;;;91.92;11.55
23643;BME280;11998;55.788;37.572;2023-07-16T03:29:37;98415.59;;;92.19;11.60
23643;BME280;11998;55.788;37.572;2023-07-16T03:30:37;98410.53;;;92.12;11.61
23643;BME280;11998;55.788;37.572;2023-07-16T03:31:38;98411.41;;;92.05;11.51
23643;BME280;11998;55.788;37.572;2023-07-16T03:32:38;98411.19;;;92.20;11.49
23643;BME280;11998;55.788;37.572;2023-07-16T03:33:39;98404.75;;;92.33;11.42
23643;BME280;11998;55.788;37.572;2023-07-16T03:34:39;98418.50;;;92.55;11.45
23643;BME280;11998;55.788;37.572;2023-07-16T03:35:47;98416.53;;;92.12;11.49
23643;BME280;11998;55.788;37.572;2023-07-16T03:36:47;98419.69;;;92.70;11.56
23643;BME280;11998;55.788;37.572;2023-07-16T03:37:48;98421.41;;;92.92;11.69
23643;BME280;11998;55.788;37.572;2023-07-16T03:38:48;98422.22;;;92.27;11.55
23643;BME280;11998;55.788;37.572;2023-07-16T03:39:49;98424.75;;;92.21;11.64
23643;BME280;11998;55.788;37.572;2023-07-16T03:40:50;98418.41;;;92.17;11.77
23643;BME280;11998;55.788;37.572;2023-07-16T03:41:50;98415.31;;;91.61;11.49
23643;BME280;11998;55.788;37.572;2023-07-16T03:42:51;98420.47;;;92.14;11.45
23643;BME280;11998;55.788;37.572;2023-07-16T03:43:51;98415.84;;;91.23;11.68
23643;BME280;11998;55.788;37.572;2023-07-16T03:44:52;98419.38;;;91.56;11.60
23643;BME280;11998;55.788;37.572;2023-07-16T03:45:53;98418.16;;;91.59;11.44
23643;BME280;11998;55.788;37.572;2023-07-16T03:46:53;98406.78;;;90.78;11.59
23643;BME280;11998;55.788;37.572;2023-07-16T03:47:54;98415.72;;;91.30;11.47
23643;BME280;11998;55.788;37.572;2023-07-16T03:48:54;98416.75;;;91.42;11.61
23643;BME280;11998;55.788;37.572;2023-07-16T03:49:56;98423.44;;;91.51;11.49
23643;BME280;11998;55.788;37.572;2023-07-16T03:50:56;98420.25;;;92.03;11.47
23643;BME280;11998;55.788;37.572;2023-07-16T03:51:57;98436.00;;;91.93;11.47
23643;BME280;11998;55.788;37.572;2023-07-16T03:52:58;98431.75;;;92.33;11.37
23643;BME280;11998;55.788;37.572;2023-07-16T03:53:59;98438.44;;;92.61;11.63
23643;BME280;11998;55.788;37.572;2023-07-16T03:55:00;98436.44;;;92.73;11.41
23643;BME280;11998;55.788;37.572;2023-07-16T03:56:00;98443.34;;;92.56;11.50
23643;BME280;11998;55.788;37.572;2023-07-16T03:57:00;98439.91;;;92.98;11.57
23643;BME280;11998;55.788;37.572;2023-07-16T03:58:01;98445.75;;;92.77;11.49
23643;BME280;11998;55.788;37.572;2023-07-16T03:59:01;98436.34;;;91.70;11.74
23643;BME280;11998;55.788;37.572;2023-07-16T04:00:03;98427.19;;;91.41;11.75
23643;BME280;11998;55.788;37.572;2023-07-16T04:01:06;98427.38;;;90.92;11.58
23643;BME280;11998;55.788;37.572;2023-07-16T04:02:06;98415.06;;;90.70;11.82
23643;BME280;11998;55.788;37.572;2023-07-16T04:03:07;98422.81;;;90.90;11.52
23643;BME280;11998;55.788;37.572;2023-07-16T04:04:07;98411.00;;;89.50;11.84
23643;BME280;11998;55.788;37.572;2023-07-16T04:05:08;98412.19;;;90.13;11.70
23643;BME280;11998;55.788;37.572;2023-07-16T04:06:09;98414.91;;;90.18;11.32
23643;BME280;11998;55.788;37.572;2023-07-16T04:07:10;98414.75;;;90.41;11.77
23643;BME280;11998;55.788;37.572;2023-07-16T04:08:11;98426.97;;;90.11;11.75
23643;BME280;11998;55.788;37.572;2023-07-16T04:09:11;98424.91;;;89.96;11.64
23643;BME280;11998;55.788;37.572;2023-07-16T04:10:11;98412.56;;;89.59;11.64
23643;BME280;11998;55.788;37.572;2023-07-16T04:11:12;98422.53;;;90.19;11.77
23643;BME280;11998;55.788;37.572;2023-07-16T04:12:12;98416.47;;;91.21;11.32
23643;BME280;11998;55.788;37.572;2023-07-16T04:13:13;98427.38;;;90.92;11.52
23643;BME280;11998;55.788;37.572;2023-07-16T04:14:13;98424.56;;;90.94;11.54
23643;BME280;11998;55.788;37.572;2023-07-16T04:15:14;98432.13;;;91.29;11.63
23643;BME280;11998;55.788;37.572;2023-07-16T04:16:15;98437.44;;;91.21;11.63
23643;BME280;11998;55.788;37.572;2023-07-16T04:17:15;98440.66;;;91.77;11.64
23643;BME280;11998;55.788;37.572;2023-07-16T04:18:15;98440.97;;;91.71;11.49
23643;BME280;11998;55.788;37.572;2023-07-16T04:19:16;98436.47;;;91.63;11.56
23643;BME280;11998;55.788;37.572;2023-07-16T04:20:16;98454.88;;;92.60;11.56
23643;BME280;11998;55.788;37.572;2023-07-16T04:21:17;98445.66;;;92.38;11.62
23643;BME280;11998;55.788;37.572;2023-07-16T04:22:17;98453.66;;;92.82;11.36
23643;BME280;11998;55.788;37.572;2023-07-16T04:23:18;98455.88;;;92.72;11.49
23643;BME280;11998;55.788;37.572;2023-07-16T04:24:19;98463.16;;;93.27;11.33
23643;BME280;11998;55.788;37.572;2023-07-16T04:25:19;98465.22;;;93.05;11.30
23643;BME280;11998;55.788;37.572;2023-07-16T04:26:20;98461.25;;;93.41;11.60
23643;BME280;11998;55.788;37.572;2023-07-16T04:27:20;98467.72;;;92.79;11.72
23643;BME280;11998;55.788;37.572;2023-07-16T04:28:21;98455.03;;;92.62;11.66
23643;BME280;11998;55.788;37.572;2023-07-16T04:29:21;98448.75;;;92.11;11.48
23643;BME280;11998;55.788;37.572;2023-07-16T04:30:22;98449.22;;;93.02;11.66
23643;BME280;11998;55.788;37.572;2023-07-16T04:31:23;98464.72;;;92.70;11.38
23643;BME280;11998;55.788;37.572;2023-07-16T04:32:24;98445.59;;;92.09;11.62
23643;BME280;11998;55.788;37.572;2023-07-16T04:33:25;98452.47;;;92.39;11.51
23643;BME280;11998;55.788;37.572;2023-07-16T04:34:25;98467.75;;;92.99;11.40
23643;BME280;11998;55.788;37.572;2023-07-16T04:35:26;98448.22;;;92.05;11.63
23643;BME280;11998;55.788;37.572;2023-07-16T04:36:26;98457.41;;;92.53;11.33
23643;BME280;11998;55.788;37.572;2023-07-16T04:37:27;98449.38;;;92.10;11.31
23643;BME280;11998;55.788;37.572;2023-07-16T04:38:27;98452.84;;;92.16;11.65
23643;BME280;11998;55.788;37.572;2023-07-16T04:39:28;98454.63;;;92.19;11.61
23643;BME280;11998;55.788;37.572;2023-07-16T04:40:31;98447.00;;;91.54;11.59
23643;BME280;11998;55.788;37.572;2023-07-16T04:41:31;98454.75;;;91.84;11.58
23643;BME280;11998;55.788;37.572;2023-07-16T04:42:32;98454.13;;;91.59;11.67
23643;BME280;11998;55.788;37.572;2023-07-16T04:43:32;98449.38;;;92.10;11.61
23643;BME280;11998;55.788;37.572;2023-07-16T04:44:33;98445.88;;;92.60;11.65
23643;BME280;11998;55.788;37.572;2023-07-16T04:45:34;98459.03;;;92.74;11.58
23643;BME280;11998;55.788;37.572;2023-07-16T04:46:34;98457.94;;;92.98;11.34
23643;BME280;11998;55.788;37.572;2023-07-16T04:47:35;98460.00;;;93.44;11.38
23643;BME280;11998;55.788;37.572;2023-07-16T04:48:35;98472.22;;;93.87;11.17
23643;BME280;11998;55.788;37.572;2023-07-16T04:49:36;98473.06;;;93.58;11.42
23643;BME280;11998;55.788;37.572;2023-07-16T04:50:37;98462.78;;;93.61;11.50
23643;BME280;11998;55.788;37.572;2023-07-16T04:51:37;98465.06;;;93.32;11.43
23643;BME280;11998;55.788;37.572;2023-07-16T04:52:37;98463.84;;;93.85;11.44
23643;BME280;11998;55.788;37.572;2023-07-16T04:53:38;98463.44;;;93.50;11.23
23643;BME280;11998;55.788;37.572;2023-07-16T04:54:38;98467.03;;;93.78;11.58
23643;BME280;11998;55.788;37.572;2023-07-16T04:55:39;98469.19;;;94.28;11.18
23643;BME280;11998;55.788;37.572;2023-07-16T04:56:40;98467.59;;;94.27;11.67
23643;BME280;11998;55.788;37.572;2023-07-16T04:57:40;98454.78;;;92.87;11.48
23643;BME280;11998;55.788;37.572;2023-07-16T04:58:42;98458.19;;;92.64;11.75
23643;BME280;11998;55.788;37.572;2023-07-16T04:59:42;98443.78;;;92.33;11.47
23643;BME280;11998;55.788;37.572;2023-07-16T05:00:43;98455.88;;;93.30;11.64
23643;BME280;11998;55.788;37.572;2023-07-16T05:01:44;98465.81;;;94.02;11.54
23643;BME280;11998;55.788;37.572;2023-07-16T05:02:44;98465.91;;;93.73;11.24
23643;BME280;11998;55.788;37.572;2023-07-16T05:03:45;98457.94;;;93.47;11.34
23643;BME280;11998;55.788;37.572;2023-07-16T05:04:45;98454.75;;;92.67;11.59
23643;BME280;11998;55.788;37.572;2023-07-16T05:05:48;98452.19;;;93.51;11.68
23643;BME280;11998;55.788;37.572;2023-07-16T05:06:48;98447.13;;;92.47;11.73
23643;BME280;11998;55.788;37.572;2023-07-16T05:07:49;98445.44;;;92.26;11.41
23643;BME280;11998;55.788;37.572;2023-07-16T05:08:49;98453.94;;;92.67;11.65
23643;BME280;11998;55.788;37.572;2023-07-16T05:09:50;98445.56;;;92.65;11.73
23643;BME280;11998;55.788;37.572;2023-07-16T05:10:50;98435.69;;;91.01;11.83
23643;BME280;11998;55.788;37.572;2023-07-16T05:11:51;98436.91;;;91.32;11.59
23643;BME280;11998;55.788;37.572;2023-07-16T05:12:51;98436.94;;;92.23;11.58
23643;BME280;11998;55.788;37.572;2023-07-16T05:13:52;98442.63;;;92.28;11.46
23643;BME280;11998;55.788;37.572;2023-07-16T05:14:52;98449.41;;;92.95;11.39
23643;BME280;11998;55.788;37.572;2023-07-16T05:15:53;98452.38;;;92.66;11.48
23643;BME280;11998;55.788;37.572;2023-07-16T05:16:54;98449.06;;;92.71;11.34
23643;BME280;11998;55.788;37.572;2023-07-16T05:17:55;98448.88;;;92.60;11.60
23643;BME280;11998;55.788;37.572;2023-07-16T05:18:58;98438.84;;;91.91;11.64
23643;BME280;11998;55.788;37.572;2023-07-16T05:19:58;98449.66;;;92.60;11.48
23643;BME280;11998;55.788;37.572;2023-07-16T05:20:58;98453.66;;;92.82;11.42
23643;BME280;11998;55.788;37.572;2023-07-16T05:21:59;98450.03;;;93.32;11.59
23643;BME280;11998;55.788;37.572;2023-07-16T05:23:00;98447.94;;;92.67;11.60
23643;BME280;11998;55.788;37.572;2023-07-16T05:24:00;98451.75;;;92.67;11.66
23643;BME280;11998;55.788;37.572;2023-07-16T05:25:01;98452.88;;;92.81;11.33
23643;BME280;11998;55.788;37.572;2023-07-16T05:26:02;98461.88;;;93.30;11.06